createdAt,value
2022-08-10T00:00:34.573Z,21.5
2022-08-10T00:06:30.749Z,21.5
2022-08-10T00:12:23.469Z,21.5
2022-08-10T00:18:52.101Z,21.3
2022-08-10T00:24:44.071Z,21
2022-08-10T00:30:35.574Z,21.2
2022-08-10T00:36:26.418Z,20.9
2022-08-10T00:42:21.709Z,20.8
2022-08-10T00:48:12.838Z,20.8
2022-08-10T00:54:03.927Z,20.5
2022-08-10T01:00:09.117Z,20.5
2022-08-10T01:05:58.458Z,20.3
2022-08-10T01:12:27.844Z,20.2
2022-08-10T01:18:29.958Z,20.1
2022-08-10T01:24:25.409Z,19.8
2022-08-10T01:30:16.493Z,19.8
2022-08-10T01:36:07.460Z,19.5
2022-08-10T01:41:59.526Z,19.6
2022-08-10T01:47:50.898Z,19.9
2022-08-10T01:53:42.586Z,19.5
2022-08-10T01:59:34.829Z,19.7
2022-08-10T02:05:38.613Z,19.3
2022-08-10T02:11:30.104Z,19.1
2022-08-10T02:17:58.743Z,19.2
2022-08-10T02:23:52.978Z,19
2022-08-10T02:29:50.493Z,19
2022-08-10T02:35:53.947Z,18.9
2022-08-10T02:42:19.668Z,18.8
2022-08-10T02:51:20.779Z,18.6
2022-08-10T02:58:12.412Z,18.5
2022-08-10T03:04:07.743Z,18.6
2022-08-10T03:09:59.265Z,18.5
2022-08-10T03:17:14.508Z,18.1
2022-08-10T03:23:04.556Z,18.6
2022-08-10T03:28:56.813Z,18.1
2022-08-10T03:34:49.326Z,18.3
2022-08-10T03:40:45.921Z,18.2
2022-08-10T03:46:37.464Z,18.1
2022-08-10T03:52:28.506Z,17.9
2022-08-10T03:58:20.242Z,18
2022-08-10T04:04:13.793Z,18
2022-08-10T04:10:13.456Z,17.9
2022-08-10T04:16:07.410Z,17.7
2022-08-10T04:21:58.754Z,17.8
2022-08-10T04:27:50.101Z,17.7
2022-08-10T04:33:42.754Z,17.6
2022-08-10T04:39:35.345Z,17.8
2022-08-10T04:45:47.933Z,17.8
2022-08-10T04:51:44.516Z,17.7
2022-08-10T04:57:37.426Z,17.7
2022-08-10T05:03:30.534Z,17.9
2022-08-10T05:10:23.354Z,17.9
2022-08-10T05:16:20.650Z,18.5
2022-08-10T05:22:22.126Z,19.1
2022-08-10T05:28:13.984Z,19.5
2022-08-10T05:34:20.587Z,21.1
2022-08-10T05:40:13.339Z,21.3
2022-08-10T05:46:16.418Z,21.8
2022-08-10T05:52:11.283Z,23.1
2022-08-10T05:58:02.895Z,23
2022-08-10T06:03:56.392Z,28.5
2022-08-10T06:09:58.875Z,29
2022-08-10T06:15:58.897Z,27.4
2022-08-10T06:21:53.717Z,23.2
2022-08-10T06:27:51.672Z,22.7
2022-08-10T06:33:42.747Z,22.5
2022-08-10T06:39:35.152Z,22.4
2022-08-10T06:45:27.717Z,22.2
2022-08-10T06:51:23.342Z,22.5
2022-08-10T06:57:18.716Z,22.1
2022-08-10T07:03:10.346Z,22.1
2022-08-10T07:09:01.846Z,22.1
2022-08-10T07:15:00.480Z,21.9
2022-08-10T07:20:51.651Z,22.2
2022-08-10T07:26:44.570Z,22
2022-08-10T07:32:35.117Z,22.5
2022-08-10T07:38:26.641Z,22.4
2022-08-10T07:44:19.149Z,22.3
2022-08-10T07:50:09.994Z,22.7
2022-08-10T07:56:03.005Z,22.8
2022-08-10T08:02:35.764Z,22.9
2022-08-10T08:08:28.301Z,22.9
2022-08-10T08:14:20.289Z,23.1
2022-08-10T08:20:11.083Z,23.4
2022-08-10T08:26:08.783Z,23.3
2022-08-10T08:32:04.045Z,23.7
2022-08-10T08:38:29.375Z,23.8
2022-08-10T08:46:45.584Z,24.4
2022-08-10T08:59:10.393Z,24.5
2022-08-10T09:06:02.342Z,24.8
2022-08-10T09:13:16.484Z,24.8
2022-08-10T09:20:21.815Z,25
2022-08-10T09:27:22.946Z,25.3
2022-08-10T09:36:18.776Z,25.3
2022-08-10T09:42:20.067Z,25.7
2022-08-10T09:48:11.277Z,26
2022-08-10T09:54:02.665Z,26.4
2022-08-10T10:00:01.004Z,26.4
2022-08-10T10:05:53.120Z,27
2022-08-10T10:11:44.629Z,26.8
2022-08-10T10:17:36.143Z,26.8
2022-08-10T10:23:30.453Z,27.4
2022-08-10T10:29:46.553Z,27.7
2022-08-10T10:35:49.793Z,27.9
2022-08-10T10:41:56.391Z,27.9
2022-08-10T10:48:29.630Z,28.1
2022-08-10T10:54:18.883Z,28.5
2022-08-10T11:00:10.308Z,28.6
2022-08-10T11:06:00.034Z,28.7
2022-08-10T11:12:01.020Z,28.7
2022-08-10T11:18:02.491Z,28.3
2022-08-10T11:24:43.054Z,28.8
2022-08-10T11:30:37.563Z,28.8
2022-08-10T11:36:28.943Z,29
2022-08-10T11:42:28.906Z,29.3
2022-08-10T11:48:52.642Z,29.4
2022-08-10T11:54:50.935Z,28.9
2022-08-10T12:00:41.576Z,29.3
2022-08-10T12:06:54.007Z,29.2
2022-08-10T12:12:44.827Z,29.6
2022-08-10T12:18:38.217Z,29.7
2022-08-10T12:24:29.246Z,29.8
2022-08-10T12:30:21.380Z,29.8
2022-08-10T12:36:18.141Z,30
2022-08-10T12:42:09.555Z,30.2
2022-08-10T12:50:13.932Z,30.2
2022-08-10T12:56:22.370Z,30.3
2022-08-10T13:02:13.059Z,29.9
2022-08-10T13:08:26.253Z,30.1
2022-08-10T13:14:19.664Z,30.2
2022-08-10T13:20:14.165Z,30.4
2022-08-10T13:26:05.857Z,30.5
2022-08-10T13:32:03.505Z,30.8
2022-08-10T13:38:01.669Z,30.5
2022-08-10T13:43:52.025Z,30.2
2022-08-10T13:49:43.278Z,30.4
2022-08-10T13:55:45.934Z,30.6
2022-08-10T14:01:45.244Z,30.4
2022-08-10T14:07:38.492Z,30.5
2022-08-10T14:13:49.739Z,30.4
2022-08-10T14:19:43.246Z,30.3
2022-08-10T14:26:00.924Z,30.9
2022-08-10T14:32:04.570Z,31.1
2022-08-10T14:37:55.426Z,30.8
2022-08-10T14:43:45.030Z,31.1
2022-08-10T14:49:57.775Z,30.9
2022-08-10T15:02:39.260Z,31
2022-08-10T15:09:59.346Z,30.8
2022-08-10T15:16:11.173Z,30.9
2022-08-10T15:22:09.376Z,30.9
2022-08-10T15:28:30.650Z,30.8
2022-08-10T15:35:37.693Z,30.8
2022-08-10T15:41:32.887Z,30.8
2022-08-10T15:47:51.910Z,31.1
2022-08-10T15:53:55.287Z,30.9
2022-08-10T16:00:00.171Z,31.1
2022-08-10T16:06:01.299Z,30.8
2022-08-10T16:11:58.568Z,30.8
2022-08-10T16:17:55.180Z,31.1
2022-08-10T16:23:45.849Z,31
2022-08-10T16:36:34.186Z,30.9
2022-08-10T16:42:31.591Z,30.8
2022-08-10T16:48:49.350Z,30.8
2022-08-10T16:54:44.504Z,30.9
2022-08-10T17:01:33.537Z,30.6
2022-08-10T17:07:36.816Z,30.7
2022-08-10T17:25:46.282Z,30.4
2022-08-10T17:31:55.515Z,30.3
2022-08-10T17:38:08.678Z,30.3
2022-08-10T17:49:57.585Z,30.1
2022-08-10T17:55:53.622Z,30
2022-08-10T18:01:59.184Z,30
2022-08-10T18:08:53.329Z,29.8
2022-08-10T18:14:50.746Z,29.6
2022-08-10T18:20:43.985Z,29.5
2022-08-10T18:33:23.474Z,29.2
2022-08-10T18:46:35.030Z,28.8
2022-08-10T18:52:25.751Z,28.6
2022-08-10T18:58:29.369Z,28.4
2022-08-10T19:04:21.176Z,28.3
2022-08-10T19:10:18.458Z,27.7
2022-08-10T19:16:10.602Z,27.2
2022-08-10T19:22:09.374Z,26.9
2022-08-10T19:28:04.670Z,26.9
2022-08-10T19:40:12.093Z,26.2
2022-08-10T19:46:30.409Z,26.1
2022-08-10T19:52:54.702Z,25.7
2022-08-10T19:58:48.083Z,25.6
2022-08-10T20:04:45.547Z,25.3
2022-08-10T20:11:44.107Z,25.4
2022-08-10T20:17:45.227Z,25
2022-08-10T20:23:53.811Z,24.9
2022-08-10T20:29:58.111Z,24.8
2022-08-10T20:35:52.681Z,24.6
2022-08-10T20:41:46.254Z,24.6
2022-08-10T20:47:53.895Z,24.3
2022-08-10T20:53:45.497Z,24.5
2022-08-10T20:59:37.141Z,24.3
2022-08-10T21:05:58.919Z,24.2
2022-08-10T21:11:51.569Z,24.1
2022-08-10T21:17:42.668Z,24.2
2022-08-10T21:23:37.834Z,24.4
2022-08-10T21:35:56.119Z,24.1
2022-08-10T21:42:13.632Z,24
2022-08-10T21:48:16.917Z,23.9
2022-08-10T21:54:25.864Z,24.1
2022-08-10T22:00:19.110Z,24.1
2022-08-10T22:06:19.577Z,24.2
2022-08-10T22:12:24.838Z,24.2
2022-08-10T22:18:40.004Z,23.8
2022-08-10T22:25:04.298Z,23.5
2022-08-10T22:37:27.596Z,23.4
2022-08-10T22:43:20.759Z,24.4
2022-08-10T22:49:38.450Z,23.9
2022-08-10T23:09:59.046Z,24.2
2022-08-10T23:23:27.457Z,24
2022-08-10T23:29:17.929Z,23.6
2022-08-10T23:36:05.381Z,23.1
